createdAt,value
2023-04-03T00:00:14.848Z,67.41
2023-04-03T00:01:14.879Z,67.93
2023-04-03T00:02:14.842Z,68.24
2023-04-03T00:03:14.857Z,68.65
2023-04-03T00:04:14.794Z,68.03
2023-04-03T00:05:14.811Z,69.59
2023-04-03T00:06:14.790Z,68.03
2023-04-03T00:07:14.827Z,67.93
2023-04-03T00:08:14.743Z,67.61
2023-04-03T00:09:14.832Z,68.55
2023-04-03T00:10:14.715Z,68.69
2023-04-03T00:11:14.748Z,68.90
2023-04-03T00:12:14.706Z,69.48
2023-04-03T00:13:14.763Z,69.62
2023-04-03T00:14:14.707Z,69.31
2023-04-03T00:15:14.676Z,69.00
2023-04-03T00:16:14.796Z,69.10
2023-04-03T00:17:14.678Z,69.45
2023-04-03T00:18:14.689Z,69.52
2023-04-03T00:19:14.665Z,69.31
2023-04-03T00:20:14.646Z,69.24
2023-04-03T00:21:14.650Z,69.34
2023-04-03T00:22:14.628Z,69.65
2023-04-03T00:23:14.646Z,69.37
2023-04-03T00:24:14.620Z,70.17
2023-04-03T00:25:14.573Z,69.24
2023-04-03T00:26:14.568Z,70.17
2023-04-03T00:27:14.583Z,70.41
2023-04-03T00:28:14.555Z,70.28
2023-04-03T00:29:14.582Z,70.72
2023-04-03T00:30:14.561Z,70.62
2023-04-03T00:31:14.557Z,71.55
2023-04-03T00:32:14.504Z,71.55
2023-04-03T00:33:14.573Z,71.69
2023-04-03T00:34:14.515Z,71.45
2023-04-03T00:35:14.523Z,71.55
2023-04-03T00:36:14.540Z,71.48
2023-04-03T00:37:14.472Z,71.80
2023-04-03T00:38:14.490Z,71.90
2023-04-03T00:39:14.484Z,71.69
2023-04-03T00:40:14.431Z,71.17
2023-04-03T00:41:14.419Z,70.97
2023-04-03T00:42:14.420Z,71.07
2023-04-03T00:43:14.428Z,71.48
2023-04-03T00:44:14.427Z,72.21
2023-04-03T00:45:14.415Z,72.14
2023-04-03T00:46:14.441Z,71.72
2023-04-03T00:47:14.361Z,73.07
2023-04-03T00:48:14.362Z,72.42
2023-04-03T00:49:14.341Z,72.55
2023-04-03T00:50:14.400Z,72.66
2023-04-03T00:51:14.371Z,72.86
2023-04-03T00:52:14.314Z,72.76
2023-04-03T00:53:14.312Z,72.86
2023-04-03T00:54:14.301Z,73.42
2023-04-03T00:55:14.314Z,73.21
2023-04-03T00:56:14.327Z,72.86
2023-04-03T00:57:14.279Z,72.80
2023-04-03T00:58:14.266Z,73.60
2023-04-03T00:59:14.259Z,74.15
2023-04-03T01:00:14.320Z,73.63
2023-04-03T01:01:14.301Z,73.52
2023-04-03T01:02:14.214Z,74.04
2023-04-03T01:03:14.307Z,74.04
2023-04-03T01:04:14.239Z,74.35
2023-04-03T01:05:14.206Z,74.67
2023-04-03T01:06:14.232Z,74.88
2023-04-03T01:07:14.195Z,74.18
2023-04-03T01:08:14.180Z,74.25
2023-04-03T01:09:14.188Z,74.15
2023-04-03T01:10:14.176Z,74.15
2023-04-03T01:11:14.162Z,75.22
2023-04-03T01:12:14.147Z,75.60
2023-04-03T01:13:14.120Z,75.19
2023-04-03T01:14:14.170Z,74.08
2023-04-03T01:15:14.124Z,74.08
2023-04-03T01:16:14.141Z,74.29
2023-04-03T01:17:14.099Z,74.91
2023-04-03T01:18:14.095Z,75.74
2023-04-03T01:19:14.065Z,75.12
2023-04-03T01:20:14.044Z,75.36
2023-04-03T01:21:14.074Z,75.54
2023-04-03T01:22:14.012Z,75.22
2023-04-03T01:23:14.033Z,74.49
2023-04-03T01:24:14.048Z,74.95
2023-04-03T01:25:14.013Z,75.22
2023-04-03T01:26:14.032Z,75.43
2023-04-03T01:27:14.004Z,75.67
2023-04-03T01:28:13.986Z,75.67
2023-04-03T01:29:13.942Z,75.67
2023-04-03T01:30:14.002Z,76.02
2023-04-03T01:31:13.952Z,76.61
2023-04-03T01:32:13.955Z,75.98
2023-04-03T01:33:13.912Z,76.09
2023-04-03T01:34:13.897Z,76.54
2023-04-03T01:35:13.939Z,76.86
2023-04-03T01:36:13.939Z,76.20
2023-04-03T01:37:13.889Z,76.61
2023-04-03T01:38:13.877Z,76.43
2023-04-03T01:39:13.843Z,76.33
2023-04-03T01:40:13.862Z,76.09
2023-04-03T01:41:13.845Z,76.33
2023-04-03T01:42:13.830Z,76.61
2023-04-03T01:43:13.851Z,76.43
2023-04-03T01:44:13.822Z,76.33
2023-04-03T01:45:13.797Z,76.33
2023-04-03T01:46:13.800Z,76.54
2023-04-03T01:47:13.802Z,76.57
2023-04-03T01:48:13.779Z,76.96
2023-04-03T01:49:13.797Z,76.65
2023-04-03T01:50:13.786Z,76.68
2023-04-03T01:51:13.743Z,76.33
2023-04-03T01:52:13.756Z,76.57
2023-04-03T01:53:13.736Z,77.10
2023-04-03T01:54:13.716Z,76.26
2023-04-03T01:55:13.747Z,77.20
2023-04-03T01:56:13.710Z,76.78
2023-04-03T01:57:13.725Z,76.99
2023-04-03T01:58:13.662Z,76.78
2023-04-03T01:59:13.671Z,77.45
2023-04-03T02:00:13.680Z,77.51
2023-04-03T02:01:13.693Z,77.62
2023-04-03T02:02:13.651Z,78.03
2023-04-03T02:03:13.647Z,77.93
2023-04-03T02:04:13.665Z,78.69
2023-04-03T02:05:13.602Z,78.49
2023-04-03T02:06:13.633Z,78.28
2023-04-03T02:07:13.601Z,78.77
2023-04-03T02:08:13.614Z,78.14
2023-04-03T02:09:13.582Z,78.28
2023-04-03T02:10:13.652Z,78.17
2023-04-03T02:11:13.548Z,78.49
2023-04-03T02:12:13.604Z,78.69
2023-04-03T02:13:13.543Z,78.91
2023-04-03T02:14:13.516Z,77.86
2023-04-03T02:15:13.518Z,78.07
2023-04-03T02:16:13.525Z,78.80
2023-04-03T02:17:13.483Z,78.17
2023-04-03T02:18:39.437Z,78.07
2023-04-03T02:19:13.450Z,78.80
2023-04-03T02:20:13.451Z,78.80
2023-04-03T02:21:13.447Z,78.07
2023-04-03T02:22:13.421Z,78.94
2023-04-03T02:23:13.441Z,79.43
2023-04-03T02:24:13.426Z,79.63
2023-04-03T02:25:13.412Z,79.22
2023-04-03T02:26:13.416Z,79.74
2023-04-03T02:27:13.401Z,79.22
2023-04-03T02:28:13.447Z,79.57
2023-04-03T02:29:13.365Z,79.74
2023-04-03T02:30:13.400Z,79.43
2023-04-03T02:31:13.376Z,79.63
2023-04-03T02:32:13.380Z,79.77
2023-04-03T02:33:13.360Z,79.98
2023-04-03T02:34:13.369Z,79.88
2023-04-03T02:35:13.303Z,80.40
2023-04-03T02:36:13.285Z,80.09
2023-04-03T02:37:13.278Z,79.77
2023-04-03T02:38:13.269Z,79.63
2023-04-03T02:39:13.284Z,79.32
2023-04-03T02:40:13.253Z,80.26
2023-04-03T02:41:13.270Z,80.09
2023-04-03T02:42:13.247Z,80.51
2023-04-03T02:43:13.224Z,80.36
2023-04-03T02:44:13.223Z,79.74
2023-04-03T02:45:13.197Z,79.63
2023-04-03T02:46:13.263Z,79.74
2023-04-03T02:47:13.166Z,79.63
2023-04-03T02:48:13.222Z,80.19
2023-04-03T02:49:13.176Z,79.98
2023-04-03T02:50:13.176Z,79.98
2023-04-03T02:51:13.154Z,80.30
2023-04-03T02:52:13.130Z,80.51
2023-04-03T02:53:13.161Z,80.40
2023-04-03T02:54:13.130Z,80.40
2023-04-03T02:55:13.121Z,80.40
2023-04-03T02:56:13.081Z,80.40
2023-04-03T02:57:13.093Z,80.82
2023-04-03T02:58:13.112Z,81.27
2023-04-03T02:59:13.207Z,80.44
2023-04-03T03:00:13.056Z,80.54
2023-04-03T03:01:13.088Z,80.40
2023-04-03T03:02:13.039Z,80.54
2023-04-03T03:03:13.048Z,80.19
2023-04-03T03:04:13.009Z,80.19
2023-04-03T03:05:13.062Z,80.30
2023-04-03T03:06:13.008Z,80.30
2023-04-03T03:07:13.037Z,79.98
2023-04-03T03:08:13.049Z,80.19
2023-04-03T03:09:12.984Z,80.30
2023-04-03T03:10:13.035Z,80.30
2023-04-03T03:11:12.952Z,80.09
2023-04-03T03:12:12.956Z,80.47
2023-04-03T03:13:12.933Z,80.05
2023-04-03T03:14:12.951Z,80.36
2023-04-03T03:15:12.897Z,79.53
2023-04-03T03:16:12.923Z,80.16
2023-04-03T03:17:12.917Z,79.53
2023-04-03T03:18:12.903Z,79.74
2023-04-03T03:19:12.895Z,79.98
2023-04-03T03:20:12.889Z,79.36
2023-04-03T03:21:12.880Z,79.43
2023-04-03T03:22:12.827Z,79.22
2023-04-03T03:23:12.819Z,79.43
2023-04-03T03:24:12.824Z,79.18
2023-04-03T03:25:12.822Z,78.24
2023-04-03T03:26:12.794Z,79.08
2023-04-03T03:27:13.816Z,79.49
2023-04-03T03:28:12.763Z,79.49
2023-04-03T03:29:12.800Z,79.74
2023-04-03T03:30:12.750Z,79.70
2023-04-03T03:31:12.741Z,79.22
2023-04-03T03:32:12.752Z,80.05
2023-04-03T03:33:12.770Z,79.74
2023-04-03T03:34:12.722Z,79.74
2023-04-03T03:35:12.718Z,79.94
2023-04-03T03:36:12.747Z,80.16
2023-04-03T03:37:12.735Z,80.26
2023-04-03T03:38:12.667Z,80.36
2023-04-03T03:39:12.681Z,79.70
2023-04-03T03:40:13.665Z,79.32
2023-04-03T03:41:12.649Z,79.94
2023-04-03T03:42:12.672Z,79.57
2023-04-03T03:43:12.652Z,80.09
2023-04-03T03:44:13.563Z,79.77
2023-04-03T03:45:12.616Z,80.51
2023-04-03T03:46:12.669Z,80.92
2023-04-03T03:47:12.572Z,80.71
2023-04-03T03:48:12.567Z,80.40
2023-04-03T03:49:12.619Z,80.30
2023-04-03T03:50:12.584Z,80.85
2023-04-03T03:51:12.561Z,81.06
2023-04-03T03:52:12.589Z,81.79
2023-04-03T03:53:12.550Z,82.31
2023-04-03T03:54:12.546Z,82.84
2023-04-03T03:55:12.549Z,82.63
2023-04-03T03:56:12.488Z,82.53
2023-04-03T03:57:12.576Z,82.63
2023-04-03T03:58:12.467Z,82.42
2023-04-03T03:59:12.497Z,82.42
2023-04-03T04:00:12.493Z,82.53
2023-04-03T04:01:12.489Z,82.84
2023-04-03T04:02:12.491Z,82.84
2023-04-03T04:03:12.614Z,82.63
2023-04-03T04:04:12.459Z,82.31
2023-04-03T04:05:12.517Z,82.80
2023-04-03T04:06:12.428Z,81.76
2023-04-03T04:07:12.396Z,81.65
2023-04-03T04:08:12.420Z,81.48
2023-04-03T04:09:12.386Z,82.00
2023-04-03T04:10:12.389Z,81.69
2023-04-03T04:11:12.361Z,82.31
2023-04-03T04:12:12.360Z,82.31
2023-04-03T04:13:12.489Z,82.53
2023-04-03T04:14:12.325Z,82.53
2023-04-03T04:15:12.319Z,82.84
2023-04-03T04:16:12.438Z,82.48
2023-04-03T04:17:12.302Z,82.31
2023-04-03T04:18:12.311Z,82.73
2023-04-03T04:19:12.276Z,82.77
2023-04-03T04:20:12.303Z,82.84
2023-04-03T04:21:12.255Z,82.63
2023-04-03T04:22:13.234Z,82.73
2023-04-03T04:23:12.225Z,82.94
2023-04-03T04:24:12.238Z,83.29
2023-04-03T04:25:12.253Z,83.78
2023-04-03T04:26:12.209Z,83.71
2023-04-03T04:27:12.192Z,83.92
2023-04-03T04:28:12.204Z,84.17
2023-04-03T04:29:12.159Z,84.06
2023-04-03T04:30:12.187Z,84.34
2023-04-03T04:31:12.208Z,84.38
2023-04-03T04:32:12.197Z,84.17
2023-04-03T04:33:12.162Z,84.02
2023-04-03T04:34:12.127Z,84.44
2023-04-03T04:35:14.052Z,84.12
2023-04-03T04:36:12.186Z,84.44
2023-04-03T04:37:12.117Z,84.02
2023-04-03T04:38:12.087Z,84.27
2023-04-03T04:39:12.066Z,84.23
2023-04-03T04:40:12.065Z,84.75
2023-04-03T04:41:12.063Z,84.44
2023-04-03T04:42:12.053Z,84.12
2023-04-03T04:43:12.067Z,84.34
2023-04-03T04:44:12.037Z,84.23
2023-04-03T04:45:12.063Z,84.34
2023-04-03T04:46:12.053Z,84.44
2023-04-03T04:47:12.010Z,84.65
2023-04-03T04:48:12.010Z,84.65
2023-04-03T04:49:11.963Z,84.23
2023-04-03T04:50:11.971Z,84.12
2023-04-03T04:51:11.956Z,84.12
2023-04-03T04:52:11.960Z,84.12
2023-04-03T04:53:11.944Z,84.38
2023-04-03T04:54:11.983Z,84.96
2023-04-03T04:55:11.928Z,84.75
2023-04-03T04:56:11.905Z,84.23
2023-04-03T04:57:11.970Z,84.44
2023-04-03T04:58:11.906Z,84.48
2023-04-03T04:59:11.878Z,84.12
2023-04-03T05:00:11.934Z,84.44
2023-04-03T05:01:11.910Z,84.44
2023-04-03T05:02:11.894Z,84.23
2023-04-03T05:03:11.836Z,84.12
2023-04-03T05:04:11.904Z,84.12
2023-04-03T05:05:11.989Z,83.64
2023-04-03T05:06:11.809Z,83.71
2023-04-03T05:07:11.806Z,83.29
2023-04-03T05:08:11.810Z,83.50
2023-04-03T05:09:11.784Z,83.40
2023-04-03T05:10:11.788Z,82.14
2023-04-03T05:11:11.810Z,82.67
2023-04-03T05:12:11.763Z,83.01
2023-04-03T05:13:11.778Z,82.56
2023-04-03T05:14:11.744Z,82.14
2023-04-03T05:15:11.759Z,80.16
2023-04-03T05:16:11.801Z,80.37
2023-04-03T05:17:11.726Z,80.99
2023-04-03T05:18:11.729Z,80.16
2023-04-03T05:19:11.707Z,80.16
2023-04-03T05:20:11.688Z,80.41
2023-04-03T05:21:11.690Z,80.47
2023-04-03T05:22:11.667Z,79.95
2023-04-03T05:23:11.685Z,80.47
2023-04-03T05:24:11.648Z,80.09
2023-04-03T05:25:11.664Z,80.09
2023-04-03T05:26:11.636Z,78.84
2023-04-03T05:27:11.638Z,79.36
2023-04-03T05:28:11.622Z,78.21
2023-04-03T05:29:11.600Z,79.36
2023-04-03T05:30:11.584Z,78.91
2023-04-03T05:31:11.596Z,78.42
2023-04-03T05:32:11.585Z,78.18
2023-04-03T05:33:11.653Z,78.80
2023-04-03T05:34:11.535Z,79.33
2023-04-03T05:35:11.548Z,78.66
2023-04-03T05:36:11.567Z,78.77
2023-04-03T05:37:11.533Z,78.56
2023-04-03T05:38:11.505Z,78.59
2023-04-03T05:39:11.509Z,78.39
2023-04-03T05:40:11.520Z,78.59
2023-04-03T05:41:11.478Z,78.59
2023-04-03T05:42:11.445Z,78.39
2023-04-03T05:43:11.452Z,78.39
2023-04-03T05:44:11.438Z,78.39
2023-04-03T05:45:11.487Z,78.59
2023-04-03T05:46:11.439Z,79.22
2023-04-03T05:47:11.444Z,78.80
2023-04-03T05:48:11.410Z,78.80
2023-04-03T05:49:12.398Z,78.04
2023-04-03T05:50:11.382Z,78.25
2023-04-03T05:51:11.375Z,78.45
2023-04-03T05:52:11.372Z,78.56
2023-04-03T05:53:11.400Z,78.39
2023-04-03T05:54:11.355Z,78.56
2023-04-03T05:55:11.344Z,78.28
2023-04-03T05:56:11.315Z,77.62
2023-04-03T05:57:11.346Z,77.62
2023-04-03T05:58:11.805Z,77.86
2023-04-03T05:59:12.364Z,77.97
2023-04-03T06:00:11.309Z,77.45
2023-04-03T06:01:11.277Z,76.92
2023-04-03T06:02:11.261Z,77.97
2023-04-03T06:03:11.472Z,77.03
2023-04-03T06:04:11.306Z,76.72
2023-04-03T06:05:11.345Z,77.24
2023-04-03T06:06:11.227Z,77.03
2023-04-03T06:07:11.222Z,76.20
2023-04-03T06:08:11.220Z,76.40
2023-04-03T06:09:11.190Z,76.86
2023-04-03T06:10:11.261Z,76.09
2023-04-03T06:11:11.189Z,75.81
2023-04-03T06:12:11.148Z,76.54
2023-04-03T06:13:11.162Z,76.51
2023-04-03T06:14:11.129Z,76.09
2023-04-03T06:15:11.109Z,75.88
2023-04-03T06:16:11.139Z,76.82
2023-04-03T06:17:11.139Z,75.57
2023-04-03T06:18:11.103Z,75.74
2023-04-03T06:19:11.090Z,76.06
2023-04-03T06:20:11.094Z,75.60
2023-04-03T06:21:11.098Z,75.85
2023-04-03T06:22:11.068Z,75.50
2023-04-03T06:23:11.058Z,74.66
2023-04-03T06:24:12.043Z,74.04
2023-04-03T06:25:11.140Z,74.46
2023-04-03T06:26:11.065Z,73.52
2023-04-03T06:27:11.100Z,74.04
2023-04-03T06:28:11.016Z,73.93
2023-04-03T06:29:11.050Z,74.11
2023-04-03T06:30:11.040Z,73.07
2023-04-03T06:31:11.000Z,71.72
2023-04-03T06:32:10.977Z,70.85
2023-04-03T06:33:11.050Z,70.89
2023-04-03T06:34:10.930Z,70.75
2023-04-03T06:35:10.972Z,69.43
2023-04-03T06:36:10.990Z,69.15
2023-04-03T06:37:10.921Z,67.03
2023-04-03T06:38:10.903Z,66.25
2023-04-03T06:39:10.892Z,67.33
2023-04-03T06:40:10.906Z,68.60
2023-04-03T06:41:10.904Z,68.26
2023-04-03T06:42:10.893Z,65.06
2023-04-03T06:43:10.877Z,65.19
2023-04-03T06:44:10.851Z,65.42
2023-04-03T06:45:10.883Z,67.22
2023-04-03T06:46:10.886Z,67.46
2023-04-03T06:47:10.850Z,67.88
2023-04-03T06:48:10.866Z,67.46
2023-04-03T06:49:10.804Z,67.20
2023-04-03T06:50:10.797Z,63.28
2023-04-03T06:51:10.802Z,62.92
2023-04-03T06:52:10.850Z,64.40
2023-04-03T06:53:10.784Z,64.85
2023-04-03T06:54:10.729Z,65.22
2023-04-03T06:55:10.781Z,67.02
2023-04-03T06:56:10.752Z,67.60
2023-04-03T06:57:10.776Z,67.83
2023-04-03T06:58:10.719Z,69.60
2023-04-03T06:59:10.721Z,70.54
2023-04-03T07:00:10.716Z,70.54
2023-04-03T07:01:10.692Z,70.43
2023-04-03T07:02:10.749Z,70.75
2023-04-03T07:03:10.661Z,70.75
2023-04-03T07:04:10.752Z,70.78
2023-04-03T07:05:10.649Z,70.61
2023-04-03T07:06:10.640Z,71.51
2023-04-03T07:07:10.664Z,71.33
2023-04-03T07:08:10.611Z,71.65
2023-04-03T07:09:10.659Z,71.68
2023-04-03T07:10:10.623Z,72.06
2023-04-03T07:11:10.607Z,71.86
2023-04-03T07:12:10.590Z,72.69
2023-04-03T07:13:10.571Z,72.83
2023-04-03T07:14:10.564Z,72.09
2023-04-03T07:15:10.567Z,72.09
2023-04-03T07:16:10.706Z,72.09
2023-04-03T07:17:10.552Z,71.78
2023-04-03T07:18:10.524Z,72.02
2023-04-03T07:19:10.523Z,72.51
2023-04-03T07:20:10.562Z,72.72
2023-04-03T07:21:10.501Z,72.79
2023-04-03T07:22:10.492Z,72.38
2023-04-03T07:23:10.489Z,71.82
2023-04-03T07:24:13.084Z,70.81
2023-04-03T07:25:12.476Z,71.44
2023-04-03T07:26:10.495Z,71.96
2023-04-03T07:27:10.479Z,72.13
2023-04-03T07:28:10.483Z,71.72
2023-04-03T07:29:10.472Z,71.41
2023-04-03T07:30:10.381Z,70.78
2023-04-03T07:31:10.468Z,70.57
2023-04-03T07:32:10.370Z,70.26
2023-04-03T07:33:10.384Z,70.78
2023-04-03T07:34:10.418Z,70.78
2023-04-03T07:35:10.332Z,71.51
2023-04-03T07:36:10.364Z,71.61
2023-04-03T07:37:10.342Z,70.72
2023-04-03T07:38:10.335Z,69.50
2023-04-03T07:39:10.343Z,69.22
2023-04-03T07:40:10.307Z,69.56
2023-04-03T07:41:10.276Z,70.36
2023-04-03T07:42:10.310Z,70.78
2023-04-03T07:43:10.261Z,70.64
2023-04-03T07:44:10.287Z,70.47
2023-04-03T07:45:10.322Z,69.43
2023-04-03T07:46:10.384Z,70.50
2023-04-03T07:47:10.249Z,70.40
2023-04-03T07:48:10.238Z,69.98
2023-04-03T07:49:10.220Z,69.81
2023-04-03T07:50:10.211Z,70.53
2023-04-03T07:51:10.186Z,70.50
2023-04-03T07:52:10.268Z,69.35
2023-04-03T07:53:10.191Z,69.43
2023-04-03T07:54:10.173Z,69.81
2023-04-03T07:55:10.155Z,68.53
2023-04-03T07:56:10.165Z,67.22
2023-04-03T07:57:10.227Z,65.83
2023-04-03T07:58:10.134Z,65.23
2023-04-03T07:59:10.116Z,62.21
2023-04-03T08:00:10.156Z,59.64
2023-04-03T08:01:10.122Z,59.78
2023-04-03T08:02:10.081Z,58.66
2023-04-03T08:03:11.192Z,56.37
2023-04-03T08:04:10.146Z,55.87
2023-04-03T08:05:10.086Z,54.87
2023-04-03T08:06:15.721Z,53.43
2023-04-03T08:07:12.112Z,53.14
2023-04-03T08:08:10.035Z,53.14
2023-04-03T08:09:10.025Z,53.56
2023-04-03T08:10:10.007Z,53.02
2023-04-03T08:11:10.026Z,53.35
2023-04-03T08:12:10.011Z,51.79
2023-04-03T08:13:09.996Z,52.37
2023-04-03T08:14:10.997Z,54.64
2023-04-03T08:15:09.992Z,53.99
2023-04-03T08:16:10.069Z,53.45
2023-04-03T08:17:09.964Z,54.94
2023-04-03T08:18:09.958Z,56.60
2023-04-03T08:19:41.839Z,56.44
2023-04-03T08:20:09.919Z,56.05
2023-04-03T08:21:09.921Z,54.22
2023-04-03T08:22:09.953Z,56.60
2023-04-03T08:23:09.953Z,58.10
2023-04-03T08:24:09.885Z,59.13
2023-04-03T08:25:09.916Z,55.30
2023-04-03T08:26:09.896Z,54.41
2023-04-03T08:27:09.888Z,53.66
2023-04-03T08:28:09.849Z,53.86
2023-04-03T08:29:09.876Z,54.22
2023-04-03T08:30:09.867Z,52.42
2023-04-03T08:31:09.845Z,52.64
2023-04-03T08:32:09.816Z,50.71
2023-04-03T08:33:09.850Z,50.20
2023-04-03T08:34:09.873Z,48.84
2023-04-03T08:35:09.767Z,47.88
2023-04-03T08:36:09.849Z,48.65
2023-04-03T08:37:09.772Z,47.25
2023-04-03T08:38:09.793Z,46.00
2023-04-03T08:39:09.739Z,45.25
2023-04-03T08:40:09.767Z,43.32
2023-04-03T08:41:09.754Z,44.70
2023-04-03T08:42:09.808Z,44.23
2023-04-03T08:43:09.750Z,45.80
2023-04-03T08:44:09.724Z,46.30
2023-04-03T08:45:09.688Z,46.37
2023-04-03T08:46:09.715Z,46.42
2023-04-03T08:47:09.677Z,46.07
2023-04-03T08:48:09.832Z,46.89
2023-04-03T08:49:09.669Z,47.94
2023-04-03T08:50:10.884Z,48.50
2023-04-03T08:51:12.672Z,48.19
2023-04-03T08:52:10.600Z,48.11
2023-04-03T08:53:09.640Z,47.92
2023-04-03T08:54:09.677Z,48.34
2023-04-03T08:55:09.590Z,46.18
2023-04-03T08:56:09.614Z,47.40
2023-04-03T08:57:09.616Z,48.53
2023-04-03T08:58:09.622Z,46.28
2023-04-03T08:59:09.604Z,46.06
2023-04-03T09:00:09.597Z,46.76
2023-04-03T09:01:09.539Z,46.24
2023-04-03T09:02:09.518Z,47.69
2023-04-03T09:03:11.259Z,44.18
2023-04-03T09:04:10.728Z,45.61
2023-04-03T09:05:09.514Z,44.12
2023-04-03T09:06:09.539Z,43.12
2023-04-03T09:07:09.500Z,44.33
2023-04-03T09:08:09.477Z,43.12
2023-04-03T09:09:09.514Z,43.42
2023-04-03T09:10:09.473Z,45.71
2023-04-03T09:11:09.451Z,45.11
2023-04-03T09:12:09.423Z,46.30
2023-04-03T09:13:09.414Z,46.72
2023-04-03T09:14:09.454Z,45.04
2023-04-03T09:15:09.371Z,44.65
2023-04-03T09:16:09.468Z,44.35
2023-04-03T09:17:09.366Z,43.85
2023-04-03T09:18:09.398Z,43.98
2023-04-03T09:19:09.390Z,46.49
2023-04-03T09:20:09.446Z,46.80
2023-04-03T09:21:09.360Z,47.01
2023-04-03T09:22:09.307Z,45.15
2023-04-03T09:23:09.330Z,45.03
2023-04-03T09:24:09.309Z,45.34
2023-04-03T09:25:09.341Z,45.81
2023-04-03T09:26:09.336Z,45.48
2023-04-03T09:27:09.406Z,45.50
2023-04-03T09:28:09.346Z,44.57
2023-04-03T09:29:09.337Z,45.11
2023-04-03T09:30:09.275Z,44.84
2023-04-03T09:31:09.272Z,46.49
2023-04-03T09:32:09.251Z,46.28
2023-04-03T09:33:09.298Z,46.49
2023-04-03T09:34:09.258Z,47.13
2023-04-03T09:35:19.056Z,48.43
2023-04-03T09:36:11.336Z,48.59
2023-04-03T09:37:09.202Z,46.88
2023-04-03T09:38:09.202Z,45.17
2023-04-03T09:39:09.162Z,47.28
2023-04-03T09:40:10.010Z,47.22
2023-04-03T09:41:09.165Z,49.46
2023-04-03T09:42:09.158Z,50.39
2023-04-03T09:43:09.187Z,49.35
2023-04-03T09:44:09.166Z,50.10
2023-04-03T09:45:09.128Z,50.21
2023-04-03T09:46:09.115Z,50.60
2023-04-03T09:47:09.107Z,50.49
2023-04-03T09:48:15.295Z,50.43
2023-04-03T09:49:11.099Z,52.90
2023-04-03T09:50:09.065Z,50.10
2023-04-03T09:51:09.042Z,50.54
2023-04-03T09:52:09.114Z,50.87
2023-04-03T09:53:09.014Z,50.95
2023-04-03T09:54:09.069Z,51.37
2023-04-03T09:55:08.986Z,52.82
2023-04-03T09:56:08.983Z,52.40
2023-04-03T09:57:09.077Z,52.72
2023-04-03T09:58:08.969Z,53.12
2023-04-03T09:59:08.985Z,52.64
2023-04-03T10:00:08.918Z,52.51
2023-04-03T10:01:09.094Z,52.09
2023-04-03T10:02:08.933Z,51.14
2023-04-03T10:03:08.942Z,52.46
2023-04-03T10:04:09.071Z,51.63
2023-04-03T10:05:10.119Z,51.63
2023-04-03T10:06:09.907Z,51.21
2023-04-03T10:07:09.956Z,51.09
2023-04-03T10:09:08.840Z,50.55
2023-04-03T10:10:08.829Z,50.45
2023-04-03T10:11:08.886Z,50.92
2023-04-03T10:12:08.855Z,49.88
2023-04-03T10:13:10.572Z,49.37
2023-04-03T10:14:09.586Z,48.54
2023-04-03T10:15:08.799Z,49.43
2023-04-03T10:16:08.867Z,49.32
2023-04-03T10:17:08.864Z,49.53
2023-04-03T10:18:21.626Z,47.26
2023-04-03T10:19:10.789Z,48.70
2023-04-03T10:20:08.811Z,49.34
2023-04-03T10:21:14.516Z,49.96
2023-04-03T10:22:10.719Z,48.52
2023-04-03T10:23:08.708Z,48.72
2023-04-03T10:24:08.711Z,48.02
2023-04-03T10:25:08.722Z,50.40
2023-04-03T10:26:08.726Z,50.09
2023-04-03T10:27:08.699Z,49.62
2023-04-03T10:28:08.716Z,50.68
2023-04-03T10:29:08.674Z,51.40
2023-04-03T10:30:08.695Z,50.80
2023-04-03T10:31:08.686Z,52.44
2023-04-03T10:32:08.738Z,51.07
2023-04-03T10:33:08.691Z,50.37
2023-04-03T10:34:08.636Z,50.05
2023-04-03T10:35:08.612Z,50.57
2023-04-03T10:36:08.622Z,50.47
2023-04-03T10:37:08.646Z,50.37
2023-04-03T10:38:08.582Z,50.78
2023-04-03T10:39:08.582Z,51.17
2023-04-03T10:40:08.708Z,50.26
2023-04-03T10:41:08.536Z,52.02
2023-04-03T10:42:15.999Z,52.54
2023-04-03T10:43:10.549Z,52.67
2023-04-03T10:44:08.537Z,52.56
2023-04-03T10:45:08.539Z,52.12
2023-04-03T10:46:08.560Z,51.40
2023-04-03T10:47:08.512Z,50.76
2023-04-03T10:48:08.531Z,51.37
2023-04-03T10:49:08.460Z,51.17
2023-04-03T10:50:08.522Z,51.37
2023-04-03T10:51:08.443Z,51.45
2023-04-03T10:52:08.420Z,50.84
2023-04-03T10:53:08.422Z,50.84
2023-04-03T10:54:08.470Z,50.84
2023-04-03T10:55:08.406Z,50.81
2023-04-03T10:56:08.540Z,50.99
2023-04-03T10:57:12.615Z,50.33
2023-04-03T10:58:09.452Z,49.27
2023-04-03T10:59:08.360Z,49.22
2023-04-03T11:00:08.342Z,50.33
2023-04-03T11:01:08.441Z,49.77
2023-04-03T11:02:08.350Z,49.64
2023-04-03T11:03:08.416Z,48.10
2023-04-03T11:04:08.485Z,47.01
2023-04-03T11:05:08.284Z,48.39
2023-04-03T11:06:08.303Z,48.41
2023-04-03T11:07:08.311Z,48.23
2023-04-03T11:08:08.316Z,49.68
2023-04-03T11:09:08.318Z,49.37
2023-04-03T11:10:08.254Z,49.08
2023-04-03T11:11:08.237Z,48.44
2023-04-03T11:12:08.294Z,48.33
2023-04-03T11:13:08.243Z,49.57
2023-04-03T11:14:08.273Z,50.01
2023-04-03T11:15:08.221Z,49.10
2023-04-03T11:16:08.215Z,48.40
2023-04-03T11:17:08.231Z,48.50
2023-04-03T11:18:09.783Z,47.78
2023-04-03T11:19:08.171Z,48.30
2023-04-03T11:20:08.173Z,48.66
2023-04-03T11:21:08.228Z,48.85
2023-04-03T11:22:08.103Z,48.23
2023-04-03T11:23:08.117Z,49.26
2023-04-03T11:24:08.136Z,49.57
2023-04-03T11:25:08.135Z,48.56
2023-04-03T11:26:08.071Z,50.13
2023-04-03T11:27:08.093Z,50.24
2023-04-03T11:28:08.189Z,50.03
2023-04-03T11:29:08.103Z,50.37
2023-04-03T11:30:08.041Z,49.98
2023-04-03T11:31:08.098Z,50.72
2023-04-03T11:32:08.056Z,50.51
2023-04-03T11:33:08.131Z,50.62
2023-04-03T11:34:08.060Z,50.62
2023-04-03T11:35:08.000Z,50.41
2023-04-03T11:36:19.061Z,50.90
2023-04-03T11:37:09.961Z,51.32
2023-04-03T11:38:08.005Z,51.63
2023-04-03T11:39:08.010Z,52.56
2023-04-03T11:40:07.957Z,51.32
2023-04-03T11:41:07.980Z,49.87
2023-04-03T11:42:13.088Z,50.10
2023-04-03T11:43:08.924Z,50.39
2023-04-03T11:44:07.990Z,50.05
2023-04-03T11:45:07.911Z,49.64
2023-04-03T11:46:07.939Z,50.03
2023-04-03T11:47:07.894Z,49.39
2023-04-03T11:48:23.260Z,48.58
2023-04-03T11:49:08.875Z,48.77
2023-04-03T11:50:07.868Z,48.54
2023-04-03T11:51:07.868Z,47.49
2023-04-03T11:52:07.890Z,47.09
2023-04-03T11:53:07.836Z,48.19
2023-04-03T11:54:07.804Z,48.39
2023-04-03T11:55:07.786Z,47.21
2023-04-03T11:56:07.796Z,46.28
2023-04-03T11:57:07.872Z,46.10
2023-04-03T11:58:07.813Z,47.73
2023-04-03T11:59:07.805Z,46.28
2023-04-03T12:00:07.837Z,47.63
2023-04-03T12:01:07.832Z,47.75
2023-04-03T12:02:07.816Z,47.44
2023-04-03T12:03:07.928Z,48.06
2023-04-03T12:04:07.819Z,46.43
2023-04-03T12:05:07.744Z,47.38
2023-04-03T12:06:07.833Z,48.52
2023-04-03T12:07:07.687Z,47.26
2023-04-03T12:08:07.689Z,48.70
2023-04-03T12:09:07.691Z,48.06
2023-04-03T12:10:08.624Z,48.37
2023-04-03T12:11:07.654Z,47.63
2023-04-03T12:12:07.677Z,46.43
2023-04-03T12:13:07.639Z,47.07
2023-04-03T12:14:07.611Z,47.77
2023-04-03T12:15:07.610Z,48.49
2023-04-03T12:16:07.689Z,49.09
2023-04-03T12:17:07.652Z,47.49
2023-04-03T12:18:07.744Z,48.93
2023-04-03T12:19:07.555Z,46.99
2023-04-03T12:20:07.532Z,49.76
2023-04-03T12:21:07.564Z,49.22
2023-04-03T12:22:07.523Z,49.43
2023-04-03T12:23:07.527Z,48.19
2023-04-03T12:24:07.553Z,48.21
2023-04-03T12:25:07.528Z,49.55
2023-04-03T12:26:07.481Z,49.32
2023-04-03T12:27:07.530Z,49.40
2023-04-03T12:28:07.498Z,49.61
2023-04-03T12:29:07.550Z,49.91
2023-04-03T12:30:07.475Z,49.69
2023-04-03T12:31:07.544Z,48.04
2023-04-03T12:32:07.525Z,49.35
2023-04-03T12:33:13.243Z,47.24
2023-04-03T12:34:09.446Z,47.96
2023-04-03T12:35:07.473Z,48.60
2023-04-03T12:36:07.449Z,48.88
2023-04-03T12:37:07.373Z,48.76
2023-04-03T12:38:07.432Z,48.35
2023-04-03T12:39:07.375Z,48.12
2023-04-03T12:40:07.372Z,47.60
2023-04-03T12:41:07.381Z,46.24
2023-04-03T12:42:07.367Z,47.17
2023-04-03T12:43:07.393Z,47.09
2023-04-03T12:44:08.347Z,46.91
2023-04-03T12:45:07.294Z,47.05
2023-04-03T12:46:07.390Z,47.46
2023-04-03T12:47:07.321Z,48.49
2023-04-03T12:48:07.429Z,48.08
2023-04-03T12:49:07.261Z,46.33
2023-04-03T12:50:07.254Z,46.64
2023-04-03T12:51:07.289Z,47.36
2023-04-03T12:52:07.247Z,47.26
2023-04-03T12:53:07.248Z,49.40